DATOS DEL TIEMPO

HOY
Time Temp. Dewp. Hum. Bar.
00:07 13.8 9.8 77 1014.1
00:17 13.8 9.8 77 1014.2
00:26 13.8 9.8 77 1014.2
00:36 13.8 9.8 77 1014.2
00:47 13.8 9.8 77 1014.5
00:57 13.8 9.8 77 1014.4
01:06 13.8 9.8 77 1014.4
01:16 13.8 9.8 77 1014.4
01:27 13.7 9.7 77 1014.5
01:37 13.7 9.7 77 1014.5
01:47 13.7 9.7 77 1014.4
01:57 13.7 9.7 77 1014.3
02:07 13.7 9.7 77 1014.3
02:17 13.7 9.7 77 1014.5
02:28 13.6 9.6 77 1014.6
02:37 13.6 9.6 77 1014.5
02:47 13.6 9.6 77 1014.5
02:57 13.5 9.6 77 1014.3
03:08 13.5 9.6 77 1014.5
03:18 13.4 9.5 77 1014.4
03:27 13.4 9.5 77 1014.4
03:38 13.4 9.5 77 1014.4
03:48 13.2 9.3 77 1014.4
03:58 13 9.1 77 1014.3
04:08 12.8 8.9 77 1014.4
04:18 12.6 8.7 77 1014.4
04:28 12.3 8.4 77 1014.4
04:38 12.1 8.2 77 1014.4
04:48 12 8.1 77 1014.4
04:58 11.8 7.9 77 1014.5
05:08 11.6 7.7 77 1014.5
05:18 11.5 7.6 77 1014.5
05:29 11.3 7.4 77 1014.6
05:39 11.2 7.5 78 1014.7
05:48 11.1 7.4 78 1014.7
05:59 10.9 7.2 78 1014.8
06:09 10.8 7.1 78 1014.8
06:19 10.7 7 78 1014.8
06:29 10.6 6.9 78 1014.9
06:39 10.6 7.1 79 1015
06:49 10.6 7.1 79 1015.1
06:59 10.6 7.1 79 1015.1
07:09 10.7 7.2 79 1015.2
07:19 10.9 7.6 80 1015.2
07:29 11 7.7 80 1015.3
07:39 11.2 7.9 80 1015.4
07:50 11.4 8.1 80 1015.4
07:58 11.5 8.4 81 1015.5
08:09 11.6 8.5 81 1015.4
08:20 11.8 8.6 81 1015.4
08:30 12 8.8 81 1015.5
08:39 12.1 8.9 81 1015.6
08:50 12.3 9.1 81 1015.7
09:00 12.4 9.2 81 1015.7
09:10 12.4 9.2 81 1015.8
09:20 12.4 9.2 81 1015.9
09:30 12.4 9.1 80 1016
09:40 12.5 9.1 80 1016.1
09:50 12.6 9.2 80 1016.2
10:00 12.7 9.3 80 1016.3
10:10 12.9 9.5 80 1016.3
10:20 13 9.6 80 1016.3
10:30 13.2 9.8 80 1016.4

ESTADÍSTICA DEL DÍA

2021-09-20
TEMPERATURA
NORMAL
12.5
ALTO
13.8
00:07
BAJA
10.6
06:29
PRESIÓN
NORMAL
1014.9
ALTO
1016.4
10:30
BAJA
1014.1
00:07
PUNTO DE ROCÍO
NORMAL
8.8
ALTO
9.8
00:07
BAJA
6.9
06:29
HUMEDAD
NORMAL
78
ALTO
81
07:58
BAJA
77
00:07
TEMPERATURA (°C)
BAJA
10.6
ALTO
13.8
NORMAL
12.5
PRESIÓN (hpa)
BAJA
1014.1
ALTO
1016.4
NORMAL
1014.9
DEVICE